createdAt,value
2022-07-26T00:01:22.965Z,3.67
2022-07-26T00:03:51.975Z,4.53
2022-07-26T00:06:20.298Z,3.50
2022-07-26T00:08:49.117Z,3.60
2022-07-26T00:11:17.486Z,4.10
2022-07-26T00:13:47.699Z,4.13
2022-07-26T00:16:16.175Z,4.13
2022-07-26T00:18:44.869Z,4.07
2022-07-26T00:21:13.261Z,3.97
2022-07-26T00:23:41.726Z,4.10
2022-07-26T00:26:10.241Z,3.88
2022-07-26T00:28:39.041Z,4.60
2022-07-26T00:31:09.035Z,4.45
2022-07-26T00:33:37.445Z,3.60
2022-07-26T00:36:06.295Z,3.63
2022-07-26T00:38:34.849Z,4.00
2022-07-26T00:41:03.750Z,4.85
2022-07-26T00:43:32.247Z,4.18
2022-07-26T00:46:01.980Z,4.07
2022-07-26T00:48:31.988Z,3.47
2022-07-26T00:51:00.445Z,3.88
2022-07-26T00:53:28.822Z,4.40
2022-07-26T00:55:57.380Z,4.13
2022-07-26T00:58:25.754Z,3.50
2022-07-26T01:00:54.641Z,4.82
2022-07-26T01:03:23.132Z,3.75
2022-07-26T01:05:59.121Z,3.70
2022-07-26T01:08:27.610Z,4.22
2022-07-26T01:10:56.278Z,3.63
2022-07-26T01:13:25.947Z,4.10
2022-07-26T04:38:39.412Z,1.98
2022-07-26T05:02:22.303Z,1.60
2022-07-26T05:08:59.824Z,1.50
2022-07-26T05:11:32.724Z,1.55
2022-07-26T05:14:14.498Z,1.60
2022-07-26T05:20:51.189Z,1.30
2022-07-26T05:23:27.248Z,1.38
2022-07-26T05:25:56.397Z,1.52
2022-07-26T05:28:24.742Z,1.23
2022-07-26T05:30:53.296Z,1.67
2022-07-26T05:33:21.468Z,1.20
2022-07-26T05:35:53.511Z,1.58
2022-07-26T05:38:21.855Z,0.98
2022-07-26T05:40:50.880Z,1.25
2022-07-26T05:43:19.301Z,1.60
2022-07-26T05:45:47.572Z,1.02
2022-07-26T05:48:15.724Z,1.30
2022-07-26T05:50:44.040Z,1.50
2022-07-26T05:53:13.553Z,1.10
2022-07-26T05:55:41.772Z,1.40
2022-07-26T05:58:09.982Z,0.85
2022-07-26T06:00:38.072Z,1.20
2022-07-26T06:03:22.097Z,1.40
2022-07-26T06:05:51.339Z,0.98
2022-07-26T06:08:21.297Z,1.33
2022-07-26T06:10:50.292Z,1.63
2022-07-26T06:13:18.629Z,1.20
2022-07-26T06:15:47.568Z,1.40
2022-07-26T06:18:15.877Z,1.58
2022-07-26T06:20:45.423Z,1.33
2022-07-26T06:23:14.217Z,1.40
2022-07-26T06:25:44.672Z,1.40
2022-07-26T06:28:12.859Z,1.50
2022-07-26T06:30:41.416Z,1.40
2022-07-26T06:33:09.767Z,1.67
2022-07-26T06:35:39.237Z,1.52
2022-07-26T06:38:08.320Z,1.73
2022-07-26T06:40:36.756Z,1.52
2022-07-26T06:43:06.275Z,1.60
2022-07-26T06:45:34.850Z,1.40
2022-07-26T06:48:03.096Z,1.42
2022-07-26T06:50:31.384Z,1.77
2022-07-26T06:52:59.700Z,1.60
2022-07-26T06:55:27.807Z,1.48
2022-07-26T06:57:55.938Z,1.45
2022-07-26T07:00:25.450Z,1.58
2022-07-26T07:02:53.575Z,1.75
2022-07-26T07:05:21.945Z,1.27
2022-07-26T07:07:50.048Z,1.50
2022-07-26T07:10:21.249Z,1.38
2022-07-26T07:12:52.505Z,1.77
2022-07-26T07:15:21.054Z,1.55
2022-07-26T07:17:51.681Z,1.80
2022-07-26T07:20:31.714Z,1.30
2022-07-26T07:28:03.560Z,1.50
2022-07-26T07:53:31.009Z,1.10
2022-07-26T07:56:28.501Z,1.38
2022-07-26T08:11:30.384Z,1.13
2022-07-26T08:13:58.748Z,0.90
2022-07-26T08:16:26.960Z,1.52
2022-07-26T08:19:08.679Z,1.58
2022-07-26T08:21:37.133Z,1.60
2022-07-26T08:24:06.160Z,1.55
2022-07-26T08:26:35.711Z,1.10
2022-07-26T08:29:06.484Z,1.45
2022-07-26T08:31:34.886Z,1.42
2022-07-26T08:34:03.146Z,1.50
2022-07-26T08:36:32.913Z,1.73
2022-07-26T08:39:01.546Z,1.65
2022-07-26T08:41:29.892Z,1.63
2022-07-26T08:44:06.717Z,1.70
2022-07-26T08:46:36.758Z,1.52
2022-07-26T08:49:08.472Z,1.70
2022-07-26T08:51:39.828Z,1.50
2022-07-26T08:54:08.577Z,1.63
2022-07-26T08:56:38.448Z,1.35
2022-07-26T08:59:19.721Z,1.65
2022-07-26T09:01:54.473Z,1.60
2022-07-26T09:04:46.648Z,1.42
2022-07-26T09:07:19.560Z,1.95
2022-07-26T09:10:08.537Z,1.23
2022-07-26T09:12:37.149Z,1.33
2022-07-26T09:15:13.044Z,1.05
2022-07-26T09:17:44.149Z,0.90
2022-07-26T09:20:19.178Z,1.65
2022-07-26T09:23:00.391Z,1.40
2022-07-26T09:25:30.225Z,1.98
2022-07-26T09:28:04.470Z,1.40
2022-07-26T09:30:34.225Z,1.60
2022-07-26T09:33:05.093Z,1.75
2022-07-26T09:35:52.237Z,1.63
2022-07-26T09:38:45.634Z,1.77
2022-07-26T09:41:21.510Z,1.50
2022-07-26T09:43:54.370Z,1.60
2022-07-26T09:46:26.160Z,1.42
2022-07-26T09:49:12.480Z,1.20
2022-07-26T09:51:45.919Z,1.30
2022-07-26T09:54:40.095Z,1.60
2022-07-26T09:57:54.752Z,1.60
2022-07-26T10:00:25.861Z,1.45
2022-07-26T10:02:55.415Z,1.52
2022-07-26T10:05:23.894Z,1.60
2022-07-26T10:07:52.764Z,2.00
2022-07-26T10:10:24.481Z,2.88
2022-07-26T10:12:54.588Z,3.13
2022-07-26T10:15:42.986Z,2.67
2022-07-26T10:18:33.812Z,2.13
2022-07-26T10:21:20.551Z,2.45
2022-07-26T10:23:57.049Z,2.40
2022-07-26T10:27:02.978Z,2.28
2022-07-26T10:29:31.245Z,2.50
2022-07-26T10:32:23.855Z,2.70
2022-07-26T10:34:53.699Z,2.83
2022-07-26T10:37:30.693Z,2.50
2022-07-26T10:40:22.474Z,2.80
2022-07-26T10:42:50.880Z,2.50
2022-07-26T10:45:24.079Z,2.85
2022-07-26T10:48:15.222Z,2.45
2022-07-26T10:50:46.869Z,2.55
2022-07-26T10:53:22.549Z,2.60
2022-07-26T10:55:52.536Z,2.53
2022-07-26T10:58:21.154Z,2.35
2022-07-26T11:01:00.747Z,2.33
2022-07-26T11:03:38.852Z,2.90
2022-07-26T11:06:16.762Z,2.15
2022-07-26T11:08:48.400Z,2.47
2022-07-26T11:11:29.860Z,2.83
2022-07-26T11:14:06.620Z,2.45
2022-07-26T11:20:39.133Z,2.22
2022-07-26T11:37:14.161Z,2.15
2022-07-26T11:40:19.287Z,2.08
2022-07-26T11:43:44.967Z,1.90
2022-07-26T11:54:22.671Z,2.08
2022-07-26T12:01:15.676Z,2.08
2022-07-26T12:03:48.601Z,1.85
2022-07-26T12:06:19.338Z,2.05
2022-07-26T12:08:54.199Z,2.03
2022-07-26T12:11:26.861Z,1.90
2022-07-26T12:13:58.491Z,2.40
2022-07-26T12:16:49.249Z,1.90
2022-07-26T12:19:29.903Z,1.65
2022-07-26T12:22:00.853Z,2.13
2022-07-26T12:24:38.895Z,1.73
2022-07-26T12:27:09.620Z,1.65
2022-07-26T12:29:39.409Z,1.92
2022-07-26T12:32:12.860Z,1.50
2022-07-26T12:34:43.047Z,1.88
2022-07-26T12:37:14.063Z,1.83
2022-07-26T12:39:44.148Z,1.83
2022-07-26T12:42:22.905Z,1.50
2022-07-26T12:45:03.822Z,1.40
2022-07-26T12:47:34.583Z,1.40
2022-07-26T12:50:03.930Z,1.48
2022-07-26T12:52:33.890Z,1.27
2022-07-26T12:55:03.745Z,1.38
2022-07-26T12:57:33.213Z,1.35
2022-07-26T13:00:06.631Z,1.42
2022-07-26T13:02:36.479Z,1.33
2022-07-26T13:05:05.597Z,1.45
2022-07-26T13:07:34.194Z,1.88
2022-07-26T13:12:51.756Z,1.48
2022-07-26T13:15:20.082Z,1.55
2022-07-26T13:17:51.616Z,1.52
2022-07-26T13:20:21.675Z,1.83
2022-07-26T13:22:50.024Z,1.52
2022-07-26T13:25:19.018Z,1.50
2022-07-26T13:27:48.922Z,1.30
2022-07-26T13:30:17.308Z,1.88
2022-07-26T13:32:45.669Z,1.55
2022-07-26T13:35:15.428Z,1.80
2022-07-26T13:37:43.765Z,1.80
2022-07-26T13:40:12.938Z,1.50
2022-07-26T13:42:41.271Z,1.77
2022-07-26T13:45:10.780Z,1.60
2022-07-26T13:47:39.083Z,1.58
2022-07-26T13:50:08.652Z,1.67
2022-07-26T13:52:38.458Z,1.58
2022-07-26T13:55:07.572Z,1.40
2022-07-26T13:57:47.054Z,1.48
2022-07-26T14:00:24.338Z,1.30
2022-07-26T14:02:52.750Z,1.45
2022-07-26T14:05:21.971Z,1.88
2022-07-26T14:07:52.463Z,1.60
2022-07-26T14:10:21.607Z,1.73
2022-07-26T14:12:50.117Z,1.25
2022-07-26T14:15:22.735Z,1.75
2022-07-26T14:17:52.365Z,1.58
2022-07-26T14:20:21.446Z,1.50
2022-07-26T14:22:53.672Z,1.63
2022-07-26T14:25:22.665Z,1.77
2022-07-26T14:27:52.090Z,1.65
2022-07-26T14:30:20.557Z,1.80
2022-07-26T14:32:49.211Z,1.60
2022-07-26T14:35:17.815Z,1.80
2022-07-26T14:37:46.465Z,1.58
2022-07-26T14:40:17.991Z,1.23
2022-07-26T14:42:47.219Z,1.48
2022-07-26T14:45:16.497Z,1.60
2022-07-26T14:47:44.843Z,1.70
2022-07-26T14:50:15.598Z,1.42
2022-07-26T14:52:46.111Z,1.70
2022-07-26T14:55:24.534Z,1.40
2022-07-26T14:57:53.491Z,1.55
2022-07-26T15:00:21.907Z,1.50
2022-07-26T15:02:50.563Z,1.67
2022-07-26T15:05:19.593Z,1.40
2022-07-26T15:07:48.082Z,1.65
2022-07-26T15:10:17.821Z,1.50
2022-07-26T15:12:46.222Z,1.30
2022-07-26T15:15:14.556Z,1.50
2022-07-26T15:17:43.262Z,1.52
2022-07-26T15:20:11.682Z,1.30
2022-07-26T15:22:40.056Z,1.60
2022-07-26T15:25:09.355Z,1.50
2022-07-26T15:27:39.140Z,1.20
2022-07-26T15:30:13.225Z,1.25
2022-07-26T15:32:43.323Z,1.20
2022-07-26T15:35:14.389Z,1.48
2022-07-26T15:37:44.825Z,1.13
2022-07-26T15:40:14.042Z,1.30
2022-07-26T15:42:46.604Z,1.48
2022-07-26T15:45:16.598Z,1.48
2022-07-26T15:47:59.085Z,1.20
2022-07-26T15:50:32.927Z,1.30
2022-07-26T15:53:01.339Z,1.08
2022-07-26T15:55:29.712Z,0.90
2022-07-26T15:57:59.688Z,1.15
2022-07-26T16:00:28.265Z,1.30
2022-07-26T16:02:56.552Z,0.95
2022-07-26T16:05:24.888Z,0.95
2022-07-26T16:07:53.178Z,1.00
2022-07-26T16:10:21.452Z,1.23
2022-07-26T16:12:49.761Z,1.20
2022-07-26T16:15:19.439Z,1.10
2022-07-26T16:17:47.801Z,1.10
2022-07-26T16:20:19.351Z,1.13
2022-07-26T16:22:48.176Z,1.20
2022-07-26T16:25:16.638Z,1.20
2022-07-26T16:27:45.131Z,1.30
2022-07-26T16:30:15.191Z,0.90
2022-07-26T16:32:44.939Z,1.15
2022-07-26T16:35:14.248Z,1.20
2022-07-26T16:37:42.614Z,1.30
2022-07-26T16:40:12.035Z,1.15
2022-07-26T16:42:40.398Z,1.10
2022-07-26T16:45:10.005Z,1.63
2022-07-26T16:47:38.425Z,1.33
2022-07-26T16:50:08.977Z,1.40
2022-07-26T16:52:37.512Z,1.10
2022-07-26T16:55:10.706Z,1.02
2022-07-26T16:57:39.639Z,0.90
2022-07-26T17:00:10.577Z,1.00
2022-07-26T17:02:39.321Z,1.20
2022-07-26T17:05:10.551Z,1.10
2022-07-26T17:07:38.968Z,1.50
2022-07-26T17:10:09.272Z,1.20
2022-07-26T17:12:38.504Z,1.58
2022-07-26T17:15:08.031Z,1.23
2022-07-26T17:17:36.320Z,1.17
2022-07-26T17:20:05.323Z,1.35
2022-07-26T17:22:35.142Z,1.20
2022-07-26T17:25:06.006Z,1.00
2022-07-26T17:27:35.586Z,1.20
2022-07-26T17:30:07.176Z,1.20
2022-07-26T17:32:36.155Z,0.80
2022-07-26T17:35:05.070Z,0.95
2022-07-26T17:37:35.744Z,1.20
2022-07-26T17:40:05.149Z,0.82
2022-07-26T17:42:36.485Z,1.02
2022-07-26T17:45:05.590Z,0.70
2022-07-26T17:47:34.131Z,1.05
2022-07-26T17:52:53.750Z,1.00
2022-07-26T17:55:22.787Z,1.02
2022-07-26T17:57:51.509Z,1.08
2022-07-26T18:00:21.020Z,0.98
2022-07-26T18:02:49.807Z,1.45
2022-07-26T18:05:19.901Z,1.30
2022-07-26T18:07:48.336Z,1.10
2022-07-26T18:10:22.117Z,1.20
2022-07-26T18:12:50.527Z,1.15
2022-07-26T18:15:18.901Z,1.00
2022-07-26T18:17:47.413Z,1.33
2022-07-26T18:20:15.706Z,1.23
2022-07-26T18:22:45.720Z,1.40
2022-07-26T18:25:18.449Z,1.13
2022-07-26T18:27:48.235Z,0.98
2022-07-26T18:30:16.651Z,1.13
2022-07-26T18:32:44.894Z,1.30
2022-07-26T18:35:13.265Z,1.20
2022-07-26T18:37:41.562Z,1.60
2022-07-26T18:40:10.743Z,1.00
2022-07-26T18:42:39.061Z,1.35
2022-07-26T18:45:09.823Z,1.20
2022-07-26T18:47:38.132Z,1.42
2022-07-26T18:50:08.125Z,1.45
2022-07-26T18:52:36.654Z,1.30
2022-07-26T18:55:07.719Z,1.33
2022-07-26T18:57:36.887Z,1.30
2022-07-26T19:00:07.230Z,1.20
2022-07-26T19:02:37.087Z,1.60
2022-07-26T19:05:06.172Z,1.30
2022-07-26T19:07:35.965Z,1.20
2022-07-26T19:10:04.475Z,1.40
2022-07-26T19:12:32.797Z,1.27
2022-07-26T19:15:01.389Z,1.08
2022-07-26T19:17:31.578Z,1.60
2022-07-26T19:20:02.934Z,1.50
2022-07-26T19:22:31.416Z,1.60
2022-07-26T19:24:59.990Z,1.40
2022-07-26T19:27:28.883Z,1.75
2022-07-26T19:29:58.047Z,1.30
2022-07-26T19:35:11.229Z,1.60
2022-07-26T19:37:39.549Z,1.40
2022-07-26T19:40:09.171Z,1.45
2022-07-26T19:42:37.541Z,1.55
2022-07-26T19:45:06.724Z,1.38
2022-07-26T19:47:35.796Z,1.30
2022-07-26T19:50:04.687Z,1.20
2022-07-26T19:52:34.496Z,0.90
2022-07-26T19:55:02.982Z,1.30
2022-07-26T19:57:31.396Z,1.20
2022-07-26T20:00:00.599Z,1.00
2022-07-26T20:02:29.032Z,1.20
2022-07-26T20:04:57.346Z,1.45
2022-07-26T20:07:26.034Z,1.10
2022-07-26T20:10:01.958Z,1.45
2022-07-26T20:12:30.456Z,1.13
2022-07-26T20:14:58.789Z,1.08
2022-07-26T20:17:27.310Z,1.27
2022-07-26T20:19:55.683Z,1.05
2022-07-26T20:22:24.465Z,1.60
2022-07-26T20:24:56.185Z,1.63
2022-07-26T20:27:26.017Z,1.23
2022-07-26T20:30:00.405Z,1.15
2022-07-26T20:32:29.340Z,1.38
2022-07-26T20:34:57.690Z,1.40
2022-07-26T20:37:26.052Z,1.10
2022-07-26T20:39:54.328Z,1.48
2022-07-26T20:42:23.249Z,1.20
2022-07-26T20:44:53.899Z,1.50
2022-07-26T20:47:23.006Z,1.05
2022-07-26T20:49:51.385Z,1.00
2022-07-26T20:52:19.785Z,1.20
2022-07-26T20:54:48.127Z,1.10
2022-07-26T20:57:16.591Z,1.30
2022-07-26T20:59:44.924Z,1.08
2022-07-26T21:02:14.718Z,1.50
2022-07-26T21:04:43.137Z,1.30
2022-07-26T21:07:11.403Z,1.38
2022-07-26T21:09:39.760Z,1.40
2022-07-26T21:12:08.989Z,1.55
2022-07-26T21:14:37.232Z,1.27
2022-07-26T21:17:11.021Z,1.52
2022-07-26T21:19:42.152Z,1.33
2022-07-26T21:22:10.567Z,1.30
2022-07-26T21:24:39.067Z,1.15
2022-07-26T21:27:07.963Z,1.42
2022-07-26T21:29:38.080Z,1.38
2022-07-26T21:32:08.175Z,1.55
2022-07-26T21:34:36.657Z,1.35
2022-07-26T21:37:06.609Z,1.40
2022-07-26T21:39:35.026Z,1.20
2022-07-26T21:42:03.414Z,1.50
2022-07-26T21:44:31.753Z,1.45
2022-07-26T21:47:00.356Z,1.58
2022-07-26T21:49:28.757Z,1.92
2022-07-26T21:51:57.187Z,1.70
2022-07-26T21:54:27.100Z,1.65
2022-07-26T21:56:55.471Z,1.27
2022-07-26T21:59:23.794Z,1.30
2022-07-26T22:01:52.237Z,1.15
2022-07-26T22:04:21.994Z,1.50
2022-07-26T22:06:50.364Z,1.50
2022-07-26T22:09:18.702Z,1.60
2022-07-26T22:11:48.495Z,1.48
2022-07-26T22:14:17.503Z,1.33
2022-07-26T22:16:47.645Z,1.73
2022-07-26T22:19:16.176Z,1.73
2022-07-26T22:21:44.577Z,1.52
2022-07-26T22:24:12.883Z,1.70
2022-07-26T22:26:42.190Z,1.58
2022-07-26T22:29:12.330Z,1.70
2022-07-26T22:31:40.904Z,1.65
2022-07-26T22:34:09.328Z,1.50
2022-07-26T22:36:40.019Z,1.90
2022-07-26T22:39:14.271Z,1.58
2022-07-26T22:42:12.859Z,1.33
2022-07-26T22:44:32.756Z,1.60
2022-07-26T22:47:01.010Z,2.45
2022-07-26T22:49:29.400Z,1.70
2022-07-26T22:51:57.802Z,1.80
2022-07-26T22:54:26.093Z,1.90
2022-07-26T22:56:54.414Z,2.13
2022-07-26T22:59:25.360Z,1.60
2022-07-26T23:01:55.070Z,2.17
2022-07-26T23:04:23.491Z,2.30
2022-07-26T23:06:52.177Z,1.70
2022-07-26T23:09:23.371Z,1.48
2022-07-26T23:11:51.680Z,1.77
2022-07-26T23:14:20.069Z,2.15
2022-07-26T23:16:48.396Z,1.85
2022-07-26T23:19:18.197Z,2.08
2022-07-26T23:21:46.798Z,1.98
2022-07-26T23:24:15.051Z,2.25
2022-07-26T23:26:43.358Z,1.92
2022-07-26T23:29:12.001Z,1.80
2022-07-26T23:31:42.247Z,1.80
2022-07-26T23:34:10.616Z,2.00
2022-07-26T23:36:40.414Z,1.80
2022-07-26T23:39:09.016Z,2.03
2022-07-26T23:41:37.424Z,1.70
2022-07-26T23:44:05.967Z,1.65
2022-07-26T23:46:34.386Z,1.65
2022-07-26T23:49:04.785Z,1.98
2022-07-26T23:51:33.263Z,1.73
2022-07-26T23:54:02.964Z,1.92
2022-07-26T23:56:31.306Z,1.67
2022-07-26T23:58:59.581Z,1.60
